RYR24Q GCFV-LFML
Flight info
| Callsign | RYR24Q |
|---|---|
| Flight time | N/A |
| Altitude | 36000 |
| Route | KORAL UG5 SONSO UN871 OSDAM UM985 BARPA M985 PIMOS M445 SOPET M985 BCN N870 FEVIK/N0461F300 N870 DIBER UN870 SOSUR |
| Aircraft | B738/M-SDE2E3FGHIRWXY/LB1 |
Departure
| Time | 2026-04-28 20:52 |
|---|---|
| Airport | Fuerteventura Airport (GCFV) |
Arrival
| Time | N/A |
|---|---|
| Airport | Marseille Provence Airport (LFML) |
| Time | Latitude | Longitude | Altitude | Speed | Heading |
|---|---|---|---|---|---|
| 2026-04-28 20:39 | 28.45050 | -13.86841 | 98 ft | 0 kts | 271° |
| 2026-04-28 20:45 | 28.45050 | -13.86833 | 100 ft | 4 kts | 271° |
| 2026-04-28 20:45 | 28.45049 | -13.86803 | 98 ft | 4 kts | 271° |
| 2026-04-28 20:45 | 28.45049 | -13.86777 | 98 ft | 3 kts | 271° |
| 2026-04-28 20:45 | 28.45053 | -13.86751 | 98 ft | 4 kts | 218° |
| 2026-04-28 20:46 | 28.45076 | -13.86744 | 98 ft | 4 kts | 179° |
| 2026-04-28 20:46 | 28.45086 | -13.86744 | 98 ft | 0 kts | 181° |
| 2026-04-28 20:48 | 28.45053 | -13.86745 | 98 ft | 8 kts | 181° |
| 2026-04-28 20:48 | 28.44949 | -13.86748 | 98 ft | 20 kts | 181° |
| 2026-04-28 20:48 | 28.44860 | -13.86708 | 96 ft | 15 kts | 96° |
| 2026-04-28 20:48 | 28.44840 | -13.86594 | 92 ft | 17 kts | 142° |
| 2026-04-28 20:49 | 28.44697 | -13.86587 | 75 ft | 24 kts | 181° |
| 2026-04-28 20:49 | 28.44525 | -13.86592 | 69 ft | 25 kts | 182° |
| 2026-04-28 20:49 | 28.44339 | -13.86599 | 60 ft | 28 kts | 181° |
| 2026-04-28 20:49 | 28.44145 | -13.86605 | 54 ft | 26 kts | 182° |
| 2026-04-28 20:50 | 28.43953 | -13.86613 | 49 ft | 29 kts | 182° |
| 2026-04-28 20:50 | 28.43740 | -13.86620 | 42 ft | 31 kts | 181° |
| 2026-04-28 20:50 | 28.43527 | -13.86626 | 37 ft | 27 kts | 182° |
| 2026-04-28 20:50 | 28.43356 | -13.86631 | 32 ft | 20 kts | 179° |
| 2026-04-28 20:51 | 28.43305 | -13.86528 | 32 ft | 17 kts | 90° |
| 2026-04-28 20:51 | 28.43363 | -13.86439 | 33 ft | 13 kts | 4° |
| 2026-04-28 20:51 | 28.43387 | -13.86438 | 33 ft | 0 kts | 2° |
| 2026-04-28 20:52 | 28.43455 | -13.86436 | 32 ft | 38 kts | 1° |
| 2026-04-28 20:52 | 28.43975 | -13.86419 | 34 ft | 111 kts | 2° |
| 2026-04-28 20:52 | 28.44953 | -13.86388 | 132 ft | 163 kts | 1° |
| 2026-04-28 20:52 | 28.46104 | -13.86217 | 892 ft | 169 kts | 19° |
| 2026-04-28 20:53 | 28.48467 | -13.84984 | 1969 ft | 210 kts | 23° |
| 2026-04-28 20:53 | 28.49828 | -13.84261 | 2355 ft | 224 kts | 24° |
| 2026-04-28 20:53 | 28.51252 | -13.83506 | 3045 ft | 223 kts | 24° |
| 2026-04-28 20:54 | 28.52714 | -13.82730 | 3430 ft | 245 kts | 24° |
| 2026-04-28 20:54 | 28.54313 | -13.81882 | 3936 ft | 259 kts | 23° |
| 2026-04-28 20:54 | 28.55930 | -13.81022 | 4712 ft | 261 kts | 24° |
| 2026-04-28 20:54 | 28.57579 | -13.80140 | 5601 ft | 259 kts | 24° |
| 2026-04-28 20:55 | 28.59226 | -13.79260 | 6282 ft | 264 kts | 24° |
| 2026-04-28 20:55 | 28.60904 | -13.78362 | 6987 ft | 267 kts | 24° |
| 2026-04-28 20:55 | 28.62589 | -13.77459 | 7703 ft | 268 kts | 24° |
| 2026-04-28 20:55 | 28.64278 | -13.76555 | 8343 ft | 275 kts | 24° |
| 2026-04-28 20:56 | 28.66026 | -13.75619 | 8978 ft | 280 kts | 23° |
| 2026-04-28 20:56 | 28.67805 | -13.74666 | 9661 ft | 284 kts | 23° |
| 2026-04-28 20:56 | 28.69604 | -13.73700 | 10272 ft | 290 kts | 22° |
| 2026-04-28 20:56 | 28.71495 | -13.72688 | 10471 ft | 311 kts | 23° |
| 2026-04-28 20:57 | 28.73518 | -13.71605 | 10619 ft | 332 kts | 24° |
| 2026-04-28 20:57 | 28.75643 | -13.70466 | 10767 ft | 351 kts | 23° |
| 2026-04-28 20:57 | 28.77903 | -13.69251 | 10996 ft | 366 kts | 24° |
| 2026-04-28 20:57 | 28.80231 | -13.67997 | 11439 ft | 373 kts | 24° |
| 2026-04-28 20:58 | 28.82594 | -13.66724 | 11989 ft | 377 kts | 23° |
| 2026-04-28 20:58 | 28.84986 | -13.65433 | 12522 ft | 381 kts | 23° |
| 2026-04-28 20:58 | 28.87402 | -13.64132 | 13100 ft | 385 kts | 24° |
| 2026-04-28 20:58 | 28.89811 | -13.62835 | 13655 ft | 390 kts | 23° |
| 2026-04-28 20:59 | 28.92268 | -13.61511 | 14183 ft | 394 kts | 24° |
| 2026-04-28 20:59 | 28.94753 | -13.60175 | 14792 ft | 395 kts | 22° |
| 2026-04-28 20:59 | 28.97307 | -13.58982 | 15418 ft | 396 kts | 18° |
| 2026-04-28 20:59 | 28.99911 | -13.57916 | 15997 ft | 398 kts | 18° |
| 2026-04-28 21:00 | 29.02520 | -13.56881 | 16559 ft | 401 kts | 17° |
| 2026-04-28 21:00 | 29.05168 | -13.55819 | 17142 ft | 404 kts | 18° |
| 2026-04-28 21:00 | 29.07837 | -13.54725 | 17702 ft | 407 kts | 18° |
| 2026-04-28 21:00 | 29.10476 | -13.53628 | 18268 ft | 409 kts | 18° |
| 2026-04-28 21:01 | 29.13171 | -13.52490 | 18743 ft | 413 kts | 20° |
| 2026-04-28 21:01 | 29.15720 | -13.50929 | 19203 ft | 419 kts | 33° |
| 2026-04-28 21:01 | 29.17949 | -13.48760 | 19682 ft | 423 kts | 45° |
| 2026-04-28 21:01 | 29.19788 | -13.46106 | 20184 ft | 427 kts | 53° |
| 2026-04-28 21:02 | 29.21460 | -13.43278 | 20635 ft | 430 kts | 54° |
| 2026-04-28 21:02 | 29.23114 | -13.40449 | 21043 ft | 434 kts | 54° |
| 2026-04-28 21:02 | 29.24820 | -13.37586 | 21467 ft | 436 kts | 53° |
| 2026-04-28 21:02 | 29.26564 | -13.34708 | 21886 ft | 439 kts | 53° |
| 2026-04-28 21:03 | 29.28320 | -13.31831 | 22331 ft | 441 kts | 53° |
| 2026-04-28 21:03 | 29.30070 | -13.28972 | 22741 ft | 444 kts | 53° |
| 2026-04-28 21:03 | 29.31855 | -13.26056 | 23135 ft | 447 kts | 53° |
| 2026-04-28 21:03 | 29.33647 | -13.23122 | 23521 ft | 450 kts | 53° |
| 2026-04-28 21:04 | 29.34837 | -13.21172 | 23745 ft | 451 kts | 53° |
| 2026-04-28 21:04 | 29.36644 | -13.18207 | 24009 ft | 455 kts | 53° |
| 2026-04-28 21:04 | 29.38462 | -13.15222 | 24017 ft | 458 kts | 53° |
| 2026-04-28 21:04 | 29.40872 | -13.11259 | 24019 ft | 454 kts | 53° |
| 2026-04-28 21:05 | 29.42674 | -13.08293 | 24030 ft | 452 kts | 53° |
| 2026-04-28 21:05 | 29.43870 | -13.06325 | 24029 ft | 453 kts | 53° |
| 2026-04-28 21:05 | 29.45680 | -13.03346 | 24031 ft | 454 kts | 53° |
| 2026-04-28 21:05 | 29.47488 | -13.00367 | 24056 ft | 456 kts | 53° |
| 2026-04-28 21:06 | 29.49303 | -12.97369 | 24268 ft | 459 kts | 53° |
| 2026-04-28 21:06 | 29.51122 | -12.94359 | 24696 ft | 458 kts | 53° |
| 2026-04-28 21:06 | 29.52940 | -12.91348 | 25090 ft | 458 kts | 53° |
| 2026-04-28 21:06 | 29.54760 | -12.88330 | 25398 ft | 461 kts | 53° |
| 2026-04-28 21:07 | 29.56597 | -12.85282 | 25678 ft | 464 kts | 53° |
| 2026-04-28 21:07 | 29.58421 | -12.82256 | 25960 ft | 467 kts | 53° |
| 2026-04-28 21:07 | 29.60274 | -12.79177 | 26260 ft | 469 kts | 53° |
| 2026-04-28 21:07 | 29.62134 | -12.76084 | 26563 ft | 471 kts | 53° |
| 2026-04-28 21:08 | 29.63997 | -12.72985 | 26861 ft | 472 kts | 53° |
| 2026-04-28 21:08 | 29.65875 | -12.69857 | 27144 ft | 475 kts | 53° |
| 2026-04-28 21:08 | 29.67755 | -12.66724 | 27411 ft | 477 kts | 53° |
| 2026-04-28 21:08 | 29.69621 | -12.63612 | 27671 ft | 479 kts | 53° |
| 2026-04-28 21:09 | 29.71519 | -12.60446 | 27931 ft | 481 kts | 53° |
| 2026-04-28 21:09 | 29.73426 | -12.57260 | 28187 ft | 483 kts | 53° |
| 2026-04-28 21:09 | 29.75333 | -12.54059 | 28524 ft | 483 kts | 53° |
| 2026-04-28 21:09 | 29.77228 | -12.50862 | 28942 ft | 482 kts | 53° |
| 2026-04-28 21:10 | 29.79112 | -12.47679 | 29363 ft | 481 kts | 53° |
| 2026-04-28 21:10 | 29.80995 | -12.44493 | 29748 ft | 480 kts | 53° |
| 2026-04-28 21:10 | 29.82873 | -12.41316 | 30185 ft | 478 kts | 53° |
| 2026-04-28 21:10 | 29.84717 | -12.38195 | 30574 ft | 476 kts | 53° |
| 2026-04-28 21:11 | 29.86583 | -12.35034 | 30874 ft | 476 kts | 53° |
| 2026-04-28 21:11 | 29.88448 | -12.31876 | 31153 ft | 477 kts | 53° |
| 2026-04-28 21:11 | 29.90315 | -12.28710 | 31444 ft | 477 kts | 53° |
| 2026-04-28 21:11 | 29.92164 | -12.25573 | 31768 ft | 476 kts | 53° |
| 2026-04-28 21:12 | 29.94024 | -12.22413 | 32091 ft | 475 kts | 53° |
| 2026-04-28 21:12 | 29.95886 | -12.19249 | 32381 ft | 475 kts | 53° |
| 2026-04-28 21:12 | 29.97742 | -12.16092 | 32665 ft | 475 kts | 52° |
| 2026-04-28 21:12 | 29.99596 | -12.12936 | 32966 ft | 474 kts | 52° |
| 2026-04-28 21:13 | 30.01426 | -12.09819 | 33275 ft | 474 kts | 52° |
| 2026-04-28 21:13 | 30.03282 | -12.06671 | 33556 ft | 473 kts | 52° |
| 2026-04-28 21:13 | 30.05147 | -12.03520 | 33840 ft | 473 kts | 52° |
| 2026-04-28 21:13 | 30.07009 | -12.00379 | 34074 ft | 474 kts | 52° |
| 2026-04-28 21:14 | 30.08847 | -11.97277 | 34282 ft | 474 kts | 52° |
| 2026-04-28 21:14 | 30.10709 | -11.94131 | 34515 ft | 474 kts | 52° |
| 2026-04-28 21:14 | 30.12568 | -11.90983 | 34715 ft | 474 kts | 52° |
| 2026-04-28 21:14 | 30.14432 | -11.87825 | 34898 ft | 475 kts | 52° |
| 2026-04-28 21:15 | 30.16298 | -11.84658 | 35108 ft | 475 kts | 52° |
| 2026-04-28 21:15 | 30.18160 | -11.81496 | 35299 ft | 476 kts | 52° |
| 2026-04-28 21:15 | 30.20025 | -11.78327 | 35490 ft | 476 kts | 52° |
| 2026-04-28 21:15 | 30.21890 | -11.75153 | 35692 ft | 477 kts | 52° |
| 2026-04-28 21:16 | 30.23733 | -11.72015 | 35883 ft | 477 kts | 52° |
| 2026-04-28 21:16 | 30.25601 | -11.68832 | 36015 ft | 479 kts | 52° |
| 2026-04-28 21:16 | 30.29381 | -11.62387 | 36013 ft | 482 kts | 52° |
| 2026-04-28 21:17 | 30.33103 | -11.56024 | 35995 ft | 477 kts | 52° |
| 2026-04-28 21:17 | 30.36821 | -11.49657 | 36008 ft | 474 kts | 52° |
| 2026-04-28 21:18 | 30.40491 | -11.43368 | 36007 ft | 473 kts | 52° |
| 2026-04-28 21:18 | 30.44174 | -11.37048 | 36010 ft | 472 kts | 52° |
| 2026-04-28 21:19 | 30.47840 | -11.30744 | 36028 ft | 473 kts | 52° |
| 2026-04-28 21:19 | 30.51525 | -11.24400 | 36014 ft | 474 kts | 52° |
| 2026-04-28 21:20 | 30.55217 | -11.18033 | 36006 ft | 475 kts | 52° |
| 2026-04-28 21:20 | 30.58885 | -11.11694 | 36003 ft | 475 kts | 52° |
| 2026-04-28 21:21 | 30.62569 | -11.05320 | 36007 ft | 476 kts | 52° |
| 2026-04-28 21:21 | 30.66252 | -10.98936 | 36003 ft | 477 kts | 52° |
| 2026-04-28 21:22 | 30.69951 | -10.92514 | 36017 ft | 477 kts | 52° |
| 2026-04-28 21:22 | 30.73024 | -10.87172 | 36008 ft | 478 kts | 52° |
| 2026-04-28 21:23 | 30.77325 | -10.79682 | 35999 ft | 479 kts | 52° |
| 2026-04-28 21:23 | 30.81032 | -10.73215 | 36015 ft | 479 kts | 52° |
| 2026-04-28 21:24 | 30.84734 | -10.66747 | 35995 ft | 479 kts | 52° |
| 2026-04-28 21:24 | 30.88404 | -10.60323 | 35995 ft | 478 kts | 52° |
| 2026-04-28 21:25 | 30.92067 | -10.53900 | 36003 ft | 477 kts | 52° |
| 2026-04-28 21:25 | 30.95735 | -10.47459 | 35995 ft | 476 kts | 52° |
| 2026-04-28 21:26 | 30.99397 | -10.41018 | 35994 ft | 475 kts | 52° |
| 2026-04-28 21:26 | 31.03028 | -10.34622 | 35993 ft | 475 kts | 52° |
| 2026-04-28 21:27 | 31.06673 | -10.28190 | 35993 ft | 474 kts | 52° |
| 2026-04-28 21:27 | 31.10318 | -10.21747 | 35992 ft | 474 kts | 52° |
| 2026-04-28 21:28 | 31.13928 | -10.15358 | 35992 ft | 475 kts | 52° |
| 2026-04-28 21:28 | 31.17567 | -10.08905 | 35996 ft | 475 kts | 52° |
| 2026-04-28 21:29 | 31.21209 | -10.02435 | 35987 ft | 476 kts | 52° |
| 2026-04-28 21:29 | 31.24829 | -9.95995 | 35990 ft | 476 kts | 52° |
| 2026-04-28 21:30 | 31.28472 | -9.89501 | 35990 ft | 476 kts | 52° |
| 2026-04-28 21:30 | 31.32095 | -9.83032 | 36006 ft | 477 kts | 53° |
| 2026-04-28 21:31 | 31.35735 | -9.76524 | 36003 ft | 478 kts | 52° |
| 2026-04-28 21:31 | 31.39566 | -9.70179 | 35986 ft | 473 kts | 43° |
| 2026-04-28 21:32 | 31.44523 | -9.65334 | 36016 ft | 462 kts | 26° |
| 2026-04-28 21:32 | 31.50045 | -9.61423 | 35996 ft | 462 kts | 26° |
| 2026-04-28 21:33 | 31.55562 | -9.57533 | 35987 ft | 463 kts | 26° |
| 2026-04-28 21:33 | 31.61042 | -9.53611 | 35978 ft | 463 kts | 26° |
| 2026-04-28 21:34 | 31.66538 | -9.49641 | 35971 ft | 463 kts | 27° |
| 2026-04-28 21:34 | 31.72021 | -9.45667 | 35963 ft | 462 kts | 27° |
| 2026-04-28 21:35 | 31.77474 | -9.41711 | 35972 ft | 462 kts | 27° |
| 2026-04-28 21:35 | 31.82962 | -9.37725 | 35967 ft | 462 kts | 27° |
| 2026-04-28 21:36 | 31.88399 | -9.33772 | 35966 ft | 462 kts | 27° |
| 2026-04-28 21:36 | 31.93868 | -9.29790 | 35970 ft | 461 kts | 27° |
| 2026-04-28 21:37 | 31.99302 | -9.25827 | 35969 ft | 461 kts | 27° |
| 2026-04-28 21:37 | 32.04759 | -9.21842 | 35977 ft | 460 kts | 27° |
| 2026-04-28 21:38 | 32.10206 | -9.17858 | 35966 ft | 460 kts | 27° |
| 2026-04-28 21:38 | 32.15616 | -9.13896 | 35969 ft | 459 kts | 27° |
| 2026-04-28 21:39 | 32.21048 | -9.09913 | 35973 ft | 458 kts | 27° |
| 2026-04-28 21:39 | 32.26440 | -9.05953 | 35975 ft | 458 kts | 27° |
| 2026-04-28 21:40 | 32.31866 | -9.01963 | 35982 ft | 459 kts | 27° |
| 2026-04-28 21:40 | 32.37276 | -8.97979 | 35975 ft | 459 kts | 27° |
| 2026-04-28 21:41 | 32.42714 | -8.93968 | 35964 ft | 460 kts | 27° |
| 2026-04-28 21:41 | 32.48157 | -8.89947 | 35970 ft | 460 kts | 27° |
| 2026-04-28 21:42 | 32.53572 | -8.85941 | 35965 ft | 461 kts | 27° |
| 2026-04-28 21:42 | 32.59023 | -8.81904 | 35989 ft | 461 kts | 27° |
| 2026-04-28 21:43 | 32.64444 | -8.77882 | 35963 ft | 461 kts | 27° |
| 2026-04-28 21:43 | 32.69895 | -8.73832 | 35954 ft | 461 kts | 27° |
| 2026-04-28 21:44 | 32.75316 | -8.69799 | 35964 ft | 461 kts | 28° |
| 2026-04-28 21:44 | 32.80768 | -8.65737 | 35983 ft | 461 kts | 28° |
| 2026-04-28 21:45 | 32.86198 | -8.61685 | 35986 ft | 461 kts | 28° |
| 2026-04-28 21:45 | 32.91618 | -8.57635 | 35969 ft | 462 kts | 28° |
| 2026-04-28 21:46 | 32.97064 | -8.53559 | 35964 ft | 462 kts | 28° |
| 2026-04-28 21:46 | 33.02518 | -8.49470 | 35969 ft | 462 kts | 28° |
| 2026-04-28 21:47 | 33.07930 | -8.45408 | 35961 ft | 461 kts | 28° |
| 2026-04-28 21:47 | 33.13363 | -8.41323 | 35966 ft | 461 kts | 28° |
| 2026-04-28 21:48 | 33.17909 | -8.37901 | 35960 ft | 461 kts | 28° |
| 2026-04-28 21:48 | 33.24226 | -8.33147 | 35960 ft | 461 kts | 28° |
| 2026-04-28 21:49 | 33.28755 | -8.29742 | 35960 ft | 461 kts | 28° |
| 2026-04-28 21:49 | 33.35085 | -8.24973 | 35962 ft | 462 kts | 28° |
| 2026-04-28 21:50 | 33.39616 | -8.21554 | 35963 ft | 463 kts | 28° |
| 2026-04-28 21:50 | 33.45072 | -8.17429 | 35964 ft | 464 kts | 28° |
| 2026-04-28 21:51 | 33.50534 | -8.13293 | 35960 ft | 464 kts | 28° |
| 2026-04-28 21:51 | 33.55996 | -8.09151 | 35956 ft | 464 kts | 28° |
| 2026-04-28 21:52 | 33.61424 | -8.05029 | 35953 ft | 464 kts | 28° |
| 2026-04-28 21:52 | 33.66879 | -8.00879 | 35957 ft | 464 kts | 28° |
| 2026-04-28 21:53 | 33.72303 | -7.96748 | 35963 ft | 464 kts | 28° |
| 2026-04-28 21:53 | 33.77767 | -7.92580 | 35950 ft | 463 kts | 28° |
| 2026-04-28 21:54 | 33.83211 | -7.88420 | 35943 ft | 463 kts | 28° |
| 2026-04-28 21:54 | 33.88613 | -7.84286 | 35943 ft | 462 kts | 28° |
| 2026-04-28 21:55 | 33.94054 | -7.80116 | 35942 ft | 462 kts | 28° |
| 2026-04-28 21:55 | 33.99476 | -7.75954 | 35963 ft | 462 kts | 28° |
| 2026-04-28 21:56 | 34.04879 | -7.71801 | 35948 ft | 461 kts | 28° |
| 2026-04-28 21:56 | 34.10268 | -7.67652 | 35950 ft | 461 kts | 28° |
| 2026-04-28 21:57 | 34.15681 | -7.63478 | 35951 ft | 461 kts | 28° |
| 2026-04-28 21:57 | 34.21085 | -7.59305 | 35940 ft | 461 kts | 29° |
| 2026-04-28 21:58 | 34.26535 | -7.55092 | 35960 ft | 469 kts | 29° |
| 2026-04-28 21:58 | 34.32036 | -7.50831 | 35943 ft | 473 kts | 30° |
| 2026-04-28 21:59 | 34.37583 | -7.46525 | 35942 ft | 473 kts | 30° |
| 2026-04-28 22:00 | 34.45884 | -7.40069 | 35939 ft | 473 kts | 30° |
| 2026-04-28 22:00 | 34.51423 | -7.35752 | 35950 ft | 472 kts | 30° |
| 2026-04-28 22:01 | 34.56924 | -7.31462 | 35939 ft | 472 kts | 30° |
| 2026-04-28 22:01 | 34.62436 | -7.27153 | 35936 ft | 471 kts | 30° |
| 2026-04-28 22:02 | 34.67958 | -7.22831 | 35937 ft | 470 kts | 30° |
| 2026-04-28 22:02 | 34.73425 | -7.18544 | 35934 ft | 470 kts | 31° |
| 2026-04-28 22:03 | 34.78951 | -7.14205 | 35957 ft | 472 kts | 31° |
| 2026-04-28 22:03 | 34.84444 | -7.09885 | 35940 ft | 474 kts | 31° |
| 2026-04-28 22:04 | 34.89994 | -7.05512 | 35937 ft | 476 kts | 31° |
| 2026-04-28 22:04 | 34.95570 | -7.01112 | 35934 ft | 477 kts | 31° |
| 2026-04-28 22:05 | 35.01137 | -6.96711 | 35926 ft | 479 kts | 31° |
| 2026-04-28 22:05 | 35.06753 | -6.92264 | 35932 ft | 480 kts | 31° |
| 2026-04-28 22:06 | 35.12329 | -6.87841 | 35928 ft | 480 kts | 31° |
| 2026-04-28 22:06 | 35.17947 | -6.83378 | 35917 ft | 480 kts | 32° |
| 2026-04-28 22:07 | 35.23544 | -6.78923 | 35928 ft | 480 kts | 32° |
| 2026-04-28 22:07 | 35.29121 | -6.74477 | 35920 ft | 480 kts | 32° |
| 2026-04-28 22:08 | 35.34378 | -6.69437 | 35922 ft | 481 kts | 47° |
| 2026-04-28 22:08 | 35.38245 | -6.62783 | 35936 ft | 479 kts | 61° |
| 2026-04-28 22:09 | 35.41484 | -6.55679 | 35921 ft | 480 kts | 61° |
| 2026-04-28 22:09 | 35.44835 | -6.48583 | 35909 ft | 481 kts | 60° |
| 2026-04-28 22:10 | 35.48352 | -6.41581 | 35899 ft | 481 kts | 59° |
| 2026-04-28 22:10 | 35.51903 | -6.34656 | 35911 ft | 482 kts | 59° |
| 2026-04-28 22:11 | 35.55462 | -6.27653 | 35916 ft | 482 kts | 59° |
| 2026-04-28 22:11 | 35.58997 | -6.20640 | 35900 ft | 483 kts | 59° |
| 2026-04-28 22:12 | 35.62516 | -6.13639 | 35917 ft | 484 kts | 60° |
| 2026-04-28 22:12 | 35.66053 | -6.06590 | 35908 ft | 484 kts | 60° |
| 2026-04-28 22:13 | 35.69590 | -5.99528 | 35922 ft | 484 kts | 60° |
| 2026-04-28 22:13 | 35.73118 | -5.92467 | 35910 ft | 485 kts | 60° |
| 2026-04-28 22:14 | 35.76205 | -5.85148 | 35919 ft | 483 kts | 67° |
| 2026-04-28 22:14 | 35.79038 | -5.77640 | 35911 ft | 483 kts | 67° |
| 2026-04-28 22:15 | 35.81939 | -5.70160 | 35899 ft | 483 kts | 66° |
| 2026-04-28 22:15 | 35.84893 | -5.62703 | 35922 ft | 483 kts | 65° |
| 2026-04-28 22:16 | 35.87891 | -5.55335 | 35936 ft | 482 kts | 65° |
| 2026-04-28 22:16 | 35.90896 | -5.47939 | 35935 ft | 482 kts | 65° |
| 2026-04-28 22:17 | 35.93870 | -5.40568 | 35940 ft | 481 kts | 65° |
| 2026-04-28 22:17 | 35.96847 | -5.33160 | 35928 ft | 480 kts | 66° |
| 2026-04-28 22:18 | 35.99803 | -5.25796 | 35938 ft | 479 kts | 66° |
| 2026-04-28 22:18 | 36.02821 | -5.18435 | 35938 ft | 479 kts | 64° |
| 2026-04-28 22:19 | 36.05906 | -5.11120 | 35940 ft | 479 kts | 64° |
| 2026-04-28 22:19 | 36.08958 | -5.03840 | 35936 ft | 479 kts | 65° |
| 2026-04-28 22:20 | 36.12020 | -4.96480 | 35934 ft | 479 kts | 65° |
| 2026-04-28 22:20 | 36.15208 | -4.89292 | 35930 ft | 481 kts | 57° |
| 2026-04-28 22:21 | 36.19650 | -4.83055 | 35938 ft | 483 kts | 46° |
| 2026-04-28 22:21 | 36.24353 | -4.77151 | 35933 ft | 484 kts | 46° |
| 2026-04-28 22:22 | 36.29070 | -4.71167 | 35929 ft | 485 kts | 47° |
| 2026-04-28 22:22 | 36.33755 | -4.65134 | 35930 ft | 486 kts | 47° |
| 2026-04-28 22:23 | 36.38436 | -4.59065 | 35927 ft | 486 kts | 47° |
| 2026-04-28 22:23 | 36.43094 | -4.53012 | 35931 ft | 487 kts | 46° |
| 2026-04-28 22:24 | 36.47783 | -4.46914 | 35929 ft | 487 kts | 46° |
| 2026-04-28 22:24 | 36.52478 | -4.40797 | 35929 ft | 487 kts | 46° |
| 2026-04-28 22:25 | 36.57127 | -4.34729 | 35937 ft | 487 kts | 46° |
| 2026-04-28 22:25 | 36.61818 | -4.28596 | 35935 ft | 487 kts | 47° |
| 2026-04-28 22:26 | 36.66455 | -4.22521 | 35935 ft | 487 kts | 47° |
| 2026-04-28 22:26 | 36.71131 | -4.16383 | 35937 ft | 486 kts | 47° |
| 2026-04-28 22:27 | 36.75756 | -4.10301 | 35931 ft | 485 kts | 47° |
| 2026-04-28 22:27 | 36.80403 | -4.04179 | 35938 ft | 485 kts | 47° |
| 2026-04-28 22:28 | 36.85030 | -3.98070 | 35932 ft | 484 kts | 47° |
| 2026-04-28 22:28 | 36.89655 | -3.91953 | 35941 ft | 483 kts | 47° |
| 2026-04-28 22:29 | 36.94250 | -3.85864 | 35951 ft | 482 kts | 47° |
| 2026-04-28 22:29 | 36.98853 | -3.79752 | 35937 ft | 481 kts | 47° |
| 2026-04-28 22:30 | 37.03432 | -3.73662 | 35929 ft | 479 kts | 47° |
| 2026-04-28 22:30 | 37.07958 | -3.67630 | 35935 ft | 477 kts | 47° |
| 2026-04-28 22:31 | 37.12515 | -3.61578 | 35940 ft | 476 kts | 46° |
| 2026-04-28 22:31 | 37.17103 | -3.55668 | 35943 ft | 475 kts | 46° |
| 2026-04-28 22:32 | 37.21707 | -3.49734 | 35946 ft | 474 kts | 46° |
| 2026-04-28 22:32 | 37.26297 | -3.43787 | 35948 ft | 474 kts | 46° |
| 2026-04-28 22:33 | 37.30884 | -3.37831 | 35955 ft | 474 kts | 46° |
| 2026-04-28 22:33 | 37.35451 | -3.31891 | 35952 ft | 475 kts | 46° |
| 2026-04-28 22:34 | 37.40055 | -3.25893 | 35949 ft | 476 kts | 46° |
| 2026-04-28 22:34 | 37.44661 | -3.19881 | 35960 ft | 477 kts | 46° |
| 2026-04-28 22:35 | 37.49249 | -3.13880 | 35938 ft | 478 kts | 46° |
| 2026-04-28 22:35 | 37.53094 | -3.08843 | 35954 ft | 478 kts | 46° |
| 2026-04-28 22:36 | 37.58469 | -3.01788 | 35943 ft | 479 kts | 46° |
| 2026-04-28 22:36 | 37.62320 | -2.96738 | 35945 ft | 479 kts | 46° |
| 2026-04-28 22:37 | 37.66954 | -2.90657 | 35945 ft | 479 kts | 46° |
| 2026-04-28 22:37 | 37.71580 | -2.84570 | 35948 ft | 479 kts | 46° |
| 2026-04-28 22:38 | 37.76167 | -2.78525 | 35956 ft | 479 kts | 46° |
| 2026-04-28 22:38 | 37.80781 | -2.72410 | 35956 ft | 478 kts | 46° |
| 2026-04-28 22:39 | 37.85345 | -2.66344 | 35945 ft | 477 kts | 45° |
| 2026-04-28 22:39 | 37.89933 | -2.60234 | 35959 ft | 476 kts | 46° |
| 2026-04-28 22:40 | 37.94498 | -2.54147 | 35958 ft | 476 kts | 46° |
| 2026-04-28 22:40 | 37.99049 | -2.48068 | 35971 ft | 475 kts | 46° |
| 2026-04-28 22:41 | 38.03577 | -2.42020 | 35973 ft | 474 kts | 46° |
| 2026-04-28 22:41 | 38.08132 | -2.35926 | 35965 ft | 474 kts | 46° |
| 2026-04-28 22:42 | 38.12654 | -2.29859 | 35960 ft | 474 kts | 46° |
| 2026-04-28 22:42 | 38.17197 | -2.23755 | 35987 ft | 474 kts | 46° |
| 2026-04-28 22:43 | 38.21700 | -2.17610 | 35962 ft | 474 kts | 49° |
| 2026-04-28 22:43 | 38.25779 | -2.11066 | 35974 ft | 474 kts | 52° |
| 2026-04-28 22:44 | 38.29783 | -2.04383 | 35967 ft | 474 kts | 51° |
| 2026-04-28 22:44 | 38.33833 | -1.97771 | 35971 ft | 473 kts | 51° |
| 2026-04-28 22:45 | 38.37882 | -1.91196 | 35963 ft | 473 kts | 51° |
| 2026-04-28 22:45 | 38.41941 | -1.84606 | 35970 ft | 472 kts | 51° |
| 2026-04-28 22:46 | 38.45994 | -1.78013 | 35972 ft | 471 kts | 51° |
| 2026-04-28 22:46 | 38.50014 | -1.71458 | 35973 ft | 470 kts | 51° |
| 2026-04-28 22:47 | 38.54046 | -1.64868 | 35973 ft | 470 kts | 51° |
| 2026-04-28 22:47 | 38.58076 | -1.58268 | 35974 ft | 469 kts | 51° |
| 2026-04-28 22:48 | 38.62072 | -1.51711 | 35958 ft | 469 kts | 51° |
| 2026-04-28 22:48 | 38.66076 | -1.45125 | 35981 ft | 468 kts | 51° |
| 2026-04-28 22:49 | 38.70080 | -1.38528 | 35970 ft | 468 kts | 51° |
| 2026-04-28 22:49 | 38.74048 | -1.31978 | 35962 ft | 467 kts | 51° |
| 2026-04-28 22:50 | 38.78036 | -1.25379 | 35971 ft | 466 kts | 51° |
| 2026-04-28 22:50 | 38.81979 | -1.18842 | 35958 ft | 466 kts | 51° |
| 2026-04-28 22:51 | 38.85940 | -1.12260 | 35982 ft | 465 kts | 51° |
| 2026-04-28 22:51 | 38.89901 | -1.05665 | 35971 ft | 465 kts | 51° |
| 2026-04-28 22:52 | 38.93821 | -0.99124 | 35964 ft | 464 kts | 51° |
| 2026-04-28 22:52 | 38.97760 | -0.92537 | 35972 ft | 464 kts | 51° |
| 2026-04-28 22:53 | 39.01692 | -0.85950 | 35966 ft | 463 kts | 51° |
| 2026-04-28 22:53 | 39.05598 | -0.79395 | 35966 ft | 463 kts | 51° |
| 2026-04-28 22:54 | 39.10141 | -0.73533 | 35971 ft | 461 kts | 38° |
| 2026-04-28 22:54 | 39.15150 | -0.68355 | 35960 ft | 461 kts | 38° |
| 2026-04-28 22:55 | 39.20089 | -0.63177 | 35958 ft | 460 kts | 38° |
| 2026-04-28 22:55 | 39.25028 | -0.57904 | 35956 ft | 460 kts | 39° |
| 2026-04-28 22:56 | 39.29990 | -0.52637 | 35951 ft | 460 kts | 37° |
| 2026-04-28 22:56 | 39.35080 | -0.47689 | 35955 ft | 459 kts | 35° |
| 2026-04-28 22:57 | 39.40239 | -0.42778 | 35964 ft | 460 kts | 36° |
| 2026-04-28 22:57 | 39.45351 | -0.37845 | 35971 ft | 460 kts | 36° |
| 2026-04-28 22:58 | 39.50451 | -0.32876 | 35965 ft | 461 kts | 36° |
| 2026-04-28 22:58 | 39.55581 | -0.27859 | 35956 ft | 461 kts | 36° |
| 2026-04-28 22:59 | 39.60713 | -0.22833 | 35964 ft | 462 kts | 36° |
| 2026-04-28 22:59 | 39.65820 | -0.17822 | 35958 ft | 462 kts | 36° |
| 2026-04-28 23:00 | 39.70970 | -0.12761 | 35952 ft | 463 kts | 36° |
| 2026-04-28 23:00 | 39.76078 | -0.07729 | 35958 ft | 463 kts | 36° |
| 2026-04-28 23:01 | 39.81184 | -0.02692 | 35952 ft | 463 kts | 36° |
| 2026-04-28 23:01 | 39.86024 | 0.02849 | 35955 ft | 464 kts | 46° |
| 2026-04-28 23:02 | 39.90380 | 0.09081 | 35948 ft | 465 kts | 47° |
| 2026-04-28 23:02 | 39.94743 | 0.15282 | 35953 ft | 464 kts | 46° |
| 2026-04-28 23:03 | 39.99155 | 0.21441 | 35951 ft | 464 kts | 46° |
| 2026-04-28 23:03 | 40.03544 | 0.27566 | 35963 ft | 464 kts | 46° |
| 2026-04-28 23:04 | 40.07973 | 0.33753 | 35971 ft | 464 kts | 46° |
| 2026-04-28 23:04 | 40.14568 | 0.42992 | 35974 ft | 464 kts | 46° |
| 2026-04-28 23:05 | 40.18975 | 0.49184 | 35961 ft | 464 kts | 46° |
| 2026-04-28 23:05 | 40.23378 | 0.55381 | 35959 ft | 464 kts | 46° |
| 2026-04-28 23:06 | 40.27751 | 0.61548 | 35956 ft | 465 kts | 46° |
| 2026-04-28 23:06 | 40.32161 | 0.67784 | 35964 ft | 465 kts | 46° |
| 2026-04-28 23:07 | 40.36532 | 0.73980 | 35961 ft | 465 kts | 46° |
| 2026-04-28 23:07 | 40.40930 | 0.80226 | 35958 ft | 465 kts | 46° |
| 2026-04-28 23:08 | 40.45324 | 0.86479 | 35962 ft | 465 kts | 46° |
| 2026-04-28 23:08 | 40.49700 | 0.92722 | 35963 ft | 466 kts | 46° |
| 2026-04-28 23:09 | 40.54070 | 0.98965 | 35965 ft | 466 kts | 46° |
| 2026-04-28 23:09 | 40.58466 | 1.05268 | 35967 ft | 466 kts | 46° |
| 2026-04-28 23:10 | 40.62834 | 1.11555 | 35967 ft | 467 kts | 47° |
| 2026-04-28 23:10 | 40.67227 | 1.17890 | 35969 ft | 467 kts | 47° |
| 2026-04-28 23:11 | 40.71587 | 1.24187 | 35970 ft | 467 kts | 47° |
| 2026-04-28 23:11 | 40.75951 | 1.30491 | 35972 ft | 467 kts | 47° |
| 2026-04-28 23:12 | 40.80335 | 1.36833 | 35972 ft | 466 kts | 47° |
| 2026-04-28 23:12 | 40.84694 | 1.43153 | 35972 ft | 466 kts | 47° |
| 2026-04-28 23:13 | 40.89056 | 1.49499 | 35972 ft | 466 kts | 47° |
| 2026-04-28 23:13 | 40.93416 | 1.55866 | 35967 ft | 466 kts | 47° |
| 2026-04-28 23:14 | 40.97752 | 1.62213 | 35975 ft | 467 kts | 47° |
| 2026-04-28 23:14 | 41.02108 | 1.68601 | 35978 ft | 467 kts | 47° |
| 2026-04-28 23:15 | 41.06462 | 1.74996 | 35976 ft | 467 kts | 47° |
| 2026-04-28 23:15 | 41.10803 | 1.81376 | 35981 ft | 468 kts | 47° |
| 2026-04-28 23:16 | 41.15172 | 1.87808 | 35985 ft | 469 kts | 47° |
| 2026-04-28 23:16 | 41.19546 | 1.94265 | 35995 ft | 469 kts | 47° |
| 2026-04-28 23:17 | 41.23885 | 2.00687 | 35995 ft | 470 kts | 47° |
| 2026-04-28 23:17 | 41.28267 | 2.07182 | 35995 ft | 470 kts | 47° |
| 2026-04-28 23:18 | 41.32050 | 2.14246 | 35986 ft | 471 kts | 64° |
| 2026-04-28 23:18 | 41.34787 | 2.22192 | 35997 ft | 472 kts | 66° |
| 2026-04-28 23:19 | 41.37469 | 2.30147 | 35983 ft | 473 kts | 65° |
| 2026-04-28 23:19 | 41.40208 | 2.38138 | 35987 ft | 474 kts | 65° |
| 2026-04-28 23:20 | 41.42956 | 2.46095 | 35985 ft | 474 kts | 65° |
| 2026-04-28 23:20 | 41.45704 | 2.54056 | 35987 ft | 475 kts | 65° |
| 2026-04-28 23:21 | 41.48462 | 2.62077 | 35984 ft | 475 kts | 65° |
| 2026-04-28 23:21 | 41.50748 | 2.68742 | 35985 ft | 475 kts | 65° |
| 2026-04-28 23:22 | 41.53492 | 2.76770 | 35996 ft | 474 kts | 65° |
| 2026-04-28 23:22 | 41.56211 | 2.84746 | 35989 ft | 474 kts | 65° |
| 2026-04-28 23:23 | 41.58939 | 2.92772 | 35990 ft | 474 kts | 65° |
| 2026-04-28 23:23 | 41.61665 | 3.00813 | 35992 ft | 474 kts | 65° |
| 2026-04-28 23:24 | 41.64362 | 3.08795 | 35994 ft | 473 kts | 65° |
| 2026-04-28 23:24 | 41.67075 | 3.16843 | 35996 ft | 473 kts | 66° |
| 2026-04-28 23:25 | 41.69751 | 3.24829 | 35992 ft | 472 kts | 66° |
| 2026-04-28 23:25 | 41.72429 | 3.32873 | 35996 ft | 472 kts | 66° |
| 2026-04-28 23:26 | 41.75088 | 3.40869 | 35999 ft | 472 kts | 66° |
| 2026-04-28 23:26 | 41.77769 | 3.48934 | 36003 ft | 472 kts | 66° |
| 2026-04-28 23:27 | 41.80441 | 3.56997 | 36004 ft | 473 kts | 66° |
| 2026-04-28 23:27 | 41.83092 | 3.65024 | 36004 ft | 473 kts | 66° |
| 2026-04-28 23:28 | 41.85754 | 3.73106 | 36004 ft | 474 kts | 66° |
| 2026-04-28 23:28 | 41.88415 | 3.81213 | 36006 ft | 474 kts | 66° |
| 2026-04-28 23:29 | 41.91057 | 3.89283 | 35999 ft | 474 kts | 66° |
| 2026-04-28 23:29 | 41.93717 | 3.97425 | 36002 ft | 475 kts | 66° |
| 2026-04-28 23:30 | 41.96359 | 4.05523 | 36009 ft | 475 kts | 66° |
| 2026-04-28 23:30 | 41.99010 | 4.13671 | 36012 ft | 476 kts | 66° |
| 2026-04-28 23:31 | 42.01664 | 4.21855 | 36011 ft | 476 kts | 66° |
| 2026-04-28 23:31 | 42.02955 | 4.25846 | 35987 ft | 462 kts | 66° |
| 2026-04-28 23:31 | 42.04217 | 4.29751 | 35992 ft | 448 kts | 66° |
| 2026-04-28 23:32 | 42.05444 | 4.33555 | 35986 ft | 435 kts | 66° |
| 2026-04-28 23:32 | 42.06631 | 4.37232 | 35991 ft | 421 kts | 65° |
| 2026-04-28 23:32 | 42.08018 | 4.40631 | 35999 ft | 408 kts | 54° |
| 2026-04-28 23:32 | 42.09731 | 4.43591 | 35987 ft | 394 kts | 45° |
| 2026-04-28 23:33 | 42.13775 | 4.48549 | 36025 ft | 398 kts | 40° |
| 2026-04-28 23:33 | 42.17984 | 4.53537 | 36027 ft | 412 kts | 40° |
| 2026-04-28 23:34 | 42.22317 | 4.58728 | 36015 ft | 417 kts | 40° |
| 2026-04-28 23:34 | 42.26591 | 4.63890 | 35997 ft | 407 kts | 40° |
| 2026-04-28 23:35 | 42.30774 | 4.68956 | 36020 ft | 407 kts | 40° |
| 2026-04-28 23:35 | 42.34999 | 4.74080 | 36021 ft | 408 kts | 40° |
| 2026-04-28 23:36 | 42.39246 | 4.79241 | 36024 ft | 410 kts | 40° |
| 2026-04-28 23:36 | 42.43473 | 4.84387 | 36024 ft | 412 kts | 40° |
| 2026-04-28 23:37 | 42.47740 | 4.89593 | 36018 ft | 413 kts | 40° |
| 2026-04-28 23:37 | 42.52018 | 4.94820 | 36023 ft | 414 kts | 40° |
| 2026-04-28 23:38 | 42.56624 | 4.99379 | 36014 ft | 407 kts | 17° |
| 2026-04-28 23:38 | 42.59319 | 5.00223 | 36013 ft | 401 kts | 2° |
| 2026-04-28 23:38 | 42.62099 | 5.00531 | 36038 ft | 400 kts | 1° |
| 2026-04-28 23:39 | 42.67667 | 5.01010 | 36028 ft | 400 kts | 1° |
| 2026-04-28 23:39 | 42.73234 | 5.01568 | 36018 ft | 400 kts | 1° |
| 2026-04-28 23:40 | 42.78760 | 5.02172 | 36022 ft | 400 kts | 2° |
| 2026-04-28 23:40 | 42.81501 | 5.02922 | 35994 ft | 405 kts | 22° |
| 2026-04-28 23:40 | 42.84015 | 5.04648 | 36056 ft | 404 kts | 26° |
| 2026-04-28 23:41 | 42.89016 | 5.08187 | 36030 ft | 405 kts | 25° |
| 2026-04-28 23:41 | 42.94034 | 5.11630 | 36020 ft | 405 kts | 24° |
| 2026-04-28 23:42 | 42.99081 | 5.15079 | 36026 ft | 406 kts | 24° |
| 2026-04-28 23:42 | 43.04147 | 5.18543 | 36025 ft | 407 kts | 24° |
| 2026-04-28 23:43 | 43.09185 | 5.21992 | 36020 ft | 407 kts | 24° |
| 2026-04-28 23:43 | 43.14273 | 5.25477 | 36020 ft | 408 kts | 24° |
| 2026-04-28 23:44 | 43.19332 | 5.28951 | 36019 ft | 409 kts | 24° |
| 2026-04-28 23:44 | 43.24427 | 5.32453 | 36019 ft | 409 kts | 24° |
| 2026-04-28 23:45 | 43.29489 | 5.35940 | 36025 ft | 409 kts | 24° |
| 2026-04-28 23:45 | 43.34588 | 5.39465 | 36025 ft | 410 kts | 24° |
| 2026-04-28 23:46 | 43.39689 | 5.43007 | 36021 ft | 410 kts | 24° |
| 2026-04-28 23:46 | 43.44750 | 5.46527 | 36016 ft | 409 kts | 24° |
| 2026-04-28 23:47 | 43.49831 | 5.50066 | 36023 ft | 408 kts | 24° |
| 2026-04-28 23:47 | 43.54902 | 5.53609 | 36031 ft | 407 kts | 24° |
| 2026-04-28 23:48 | 43.59925 | 5.57129 | 36032 ft | 407 kts | 24° |
| 2026-04-28 23:48 | 43.64977 | 5.60678 | 36035 ft | 406 kts | 24° |
| 2026-04-28 23:49 | 43.70018 | 5.64223 | 36055 ft | 405 kts | 24° |
| 2026-04-28 23:49 | 43.75020 | 5.67753 | 36043 ft | 405 kts | 24° |
| 2026-04-28 23:50 | 43.80040 | 5.71303 | 36033 ft | 405 kts | 24° |
| 2026-04-28 23:50 | 43.85063 | 5.74867 | 36043 ft | 405 kts | 24° |
| 2026-04-28 23:51 | 43.90048 | 5.78409 | 36055 ft | 405 kts | 24° |
| 2026-04-28 23:51 | 43.95060 | 5.81974 | 36049 ft | 405 kts | 24° |
| 2026-04-28 23:52 | 44.00081 | 5.85548 | 36050 ft | 405 kts | 24° |
| 2026-04-28 23:52 | 44.05104 | 5.89125 | 36048 ft | 405 kts | 24° |
| 2026-04-28 23:53 | 44.10131 | 5.92708 | 36036 ft | 405 kts | 24° |
| 2026-04-28 23:53 | 44.15134 | 5.96271 | 36042 ft | 405 kts | 24° |
| 2026-04-28 23:54 | 44.20154 | 5.99849 | 36056 ft | 405 kts | 24° |
| 2026-04-28 23:54 | 44.25150 | 6.03412 | 36041 ft | 406 kts | 24° |
| 2026-04-28 23:55 | 44.30210 | 6.07020 | 36057 ft | 407 kts | 24° |
| 2026-04-28 23:55 | 44.35235 | 6.10599 | 36064 ft | 407 kts | 24° |
| 2026-04-28 23:56 | 44.40280 | 6.14202 | 36051 ft | 407 kts | 24° |
| 2026-04-28 23:56 | 44.45317 | 6.17808 | 36055 ft | 406 kts | 24° |
| 2026-04-28 23:57 | 44.50329 | 6.21404 | 36056 ft | 406 kts | 24° |
| 2026-04-28 23:57 | 44.55362 | 6.25020 | 36050 ft | 406 kts | 24° |
| 2026-04-28 23:58 | 44.60394 | 6.28638 | 36059 ft | 406 kts | 24° |
| 2026-04-28 23:58 | 44.65395 | 6.32236 | 36060 ft | 406 kts | 24° |
| 2026-04-28 23:59 | 44.70432 | 6.35863 | 36060 ft | 405 kts | 24° |
| 2026-04-28 23:59 | 44.75425 | 6.39465 | 36054 ft | 405 kts | 24° |
| 2026-04-29 00:00 | 44.80457 | 6.43097 | 36052 ft | 405 kts | 24° |
| 2026-04-29 00:00 | 44.85473 | 6.46725 | 36061 ft | 404 kts | 24° |
| 2026-04-29 00:01 | 44.90442 | 6.50334 | 36063 ft | 404 kts | 24° |
| 2026-04-29 00:01 | 44.95453 | 6.53996 | 36061 ft | 405 kts | 24° |
| 2026-04-29 00:02 | 45.00468 | 6.57670 | 36073 ft | 407 kts | 24° |
| 2026-04-29 00:02 | 45.05515 | 6.61381 | 36074 ft | 408 kts | 24° |
| 2026-04-29 00:03 | 45.10526 | 6.65076 | 36060 ft | 409 kts | 24° |
| 2026-04-29 00:03 | 45.15592 | 6.68814 | 36068 ft | 410 kts | 24° |
| 2026-04-29 00:04 | 45.20656 | 6.72561 | 36074 ft | 411 kts | 24° |
| 2026-04-29 00:04 | 45.25721 | 6.76357 | 36064 ft | 411 kts | 24° |
| 2026-04-29 00:05 | 45.30734 | 6.80130 | 36060 ft | 408 kts | 24° |
| 2026-04-29 00:05 | 45.35755 | 6.83921 | 36078 ft | 408 kts | 24° |
| 2026-04-29 00:06 | 45.40758 | 6.87711 | 36083 ft | 407 kts | 24° |
| 2026-04-29 00:06 | 45.45717 | 6.91488 | 36088 ft | 405 kts | 24° |
| 2026-04-29 00:07 | 45.50693 | 6.95285 | 36093 ft | 405 kts | 24° |
| 2026-04-29 00:07 | 45.55638 | 6.99063 | 36091 ft | 405 kts | 24° |
| 2026-04-29 00:08 | 45.60614 | 7.02881 | 36093 ft | 405 kts | 24° |
| 2026-04-29 00:08 | 45.65576 | 7.06711 | 36086 ft | 404 kts | 24° |
| 2026-04-29 00:09 | 45.70488 | 7.10533 | 36089 ft | 403 kts | 24° |
| 2026-04-29 00:09 | 45.75418 | 7.14373 | 36115 ft | 404 kts | 24° |
| 2026-04-29 00:10 | 45.79547 | 7.17590 | 36086 ft | 405 kts | 24° |
| 2026-04-29 00:10 | 45.84493 | 7.21450 | 36107 ft | 404 kts | 24° |
| 2026-04-29 00:11 | 45.89425 | 7.25308 | 36114 ft | 406 kts | 24° |
| 2026-04-29 00:12 | 45.96882 | 7.31148 | 36106 ft | 408 kts | 24° |
| 2026-04-29 00:12 | 46.01857 | 7.35059 | 36109 ft | 409 kts | 24° |
| 2026-04-29 00:13 | 46.06871 | 7.39007 | 36088 ft | 410 kts | 24° |
| 2026-04-29 00:13 | 46.11831 | 7.42924 | 36103 ft | 408 kts | 24° |
| 2026-04-29 00:14 | 46.16810 | 7.46870 | 36115 ft | 407 kts | 24° |
| 2026-04-29 00:14 | 46.21779 | 7.50831 | 36082 ft | 407 kts | 24° |
| 2026-04-29 00:15 | 46.26699 | 7.54765 | 36076 ft | 405 kts | 24° |
| 2026-04-29 00:15 | 46.31643 | 7.58726 | 36087 ft | 405 kts | 24° |
| 2026-04-29 00:16 | 46.36541 | 7.62676 | 36114 ft | 404 kts | 24° |
| 2026-04-29 00:16 | 46.41479 | 7.66678 | 36091 ft | 406 kts | 24° |
| 2026-04-29 00:17 | 46.46412 | 7.70690 | 36103 ft | 406 kts | 24° |
| 2026-04-29 00:17 | 46.51331 | 7.74695 | 36100 ft | 408 kts | 24° |
| 2026-04-29 00:18 | 46.56292 | 7.78735 | 36106 ft | 409 kts | 24° |
| 2026-04-29 00:18 | 46.61238 | 7.82762 | 36101 ft | 410 kts | 24° |
| 2026-04-29 00:19 | 46.66127 | 7.86744 | 36093 ft | 408 kts | 24° |
| 2026-04-29 00:19 | 46.68635 | 7.88634 | 36088 ft | 403 kts | 12° |
| 2026-04-29 00:19 | 46.71354 | 7.89220 | 36120 ft | 390 kts | 348° |
| 2026-04-29 00:19 | 46.73964 | 7.88338 | 36136 ft | 385 kts | 335° |
| 2026-04-29 00:20 | 46.76506 | 7.87077 | 36114 ft | 393 kts | 335° |
| 2026-04-29 00:20 | 46.81855 | 7.84692 | 36096 ft | 412 kts | 342° |
| 2026-04-29 00:21 | 46.87570 | 7.83152 | 35226 ft | 425 kts | 344° |
| 2026-04-29 00:21 | 46.90484 | 7.82423 | 34352 ft | 434 kts | 344° |
| 2026-04-29 00:21 | 46.93488 | 7.81660 | 33312 ft | 441 kts | 344° |
| 2026-04-29 00:21 | 46.96534 | 7.80871 | 32112 ft | 444 kts | 344° |
| 2026-04-29 00:22 | 46.99577 | 7.80067 | 31149 ft | 442 kts | 344° |
| 2026-04-29 00:22 | 47.02540 | 7.79281 | 30938 ft | 422 kts | 344° |
| 2026-04-29 00:22 | 47.05394 | 7.78519 | 30856 ft | 409 kts | 343° |
| 2026-04-29 00:22 | 47.08158 | 7.77773 | 30783 ft | 397 kts | 343° |
| 2026-04-29 00:23 | 47.10825 | 7.77053 | 30384 ft | 394 kts | 343° |
| 2026-04-29 00:23 | 47.13541 | 7.76310 | 29703 ft | 398 kts | 344° |
| 2026-04-29 00:23 | 47.16273 | 7.75559 | 29010 ft | 400 kts | 344° |
| 2026-04-29 00:23 | 47.19027 | 7.74804 | 28329 ft | 401 kts | 344° |
| 2026-04-29 00:24 | 47.21779 | 7.74050 | 27677 ft | 403 kts | 345° |
| 2026-04-29 00:24 | 47.24543 | 7.73292 | 27031 ft | 404 kts | 345° |
| 2026-04-29 00:24 | 47.27314 | 7.72534 | 26397 ft | 405 kts | 345° |
| 2026-04-29 00:24 | 47.30058 | 7.71783 | 25778 ft | 406 kts | 345° |
| 2026-04-29 00:25 | 47.32848 | 7.71022 | 25177 ft | 407 kts | 346° |
| 2026-04-29 00:25 | 47.35704 | 7.70841 | 24562 ft | 416 kts | 4° |
| 2026-04-29 00:25 | 47.38517 | 7.71955 | 23984 ft | 423 kts | 21° |
| 2026-04-29 00:25 | 47.41035 | 7.74224 | 23354 ft | 427 kts | 39° |
| 2026-04-29 00:26 | 47.42992 | 7.77454 | 22701 ft | 429 kts | 57° |
| 2026-04-29 00:26 | 47.44231 | 7.81466 | 22046 ft | 429 kts | 75° |
| 2026-04-29 00:26 | 47.44587 | 7.85827 | 21406 ft | 426 kts | 94° |
| 2026-04-29 00:26 | 47.44048 | 7.90098 | 20770 ft | 422 kts | 112° |
| 2026-04-29 00:27 | 47.42696 | 7.93899 | 20152 ft | 415 kts | 129° |
| 2026-04-29 00:27 | 47.40716 | 7.96876 | 19564 ft | 408 kts | 145° |
| 2026-04-29 00:27 | 47.38303 | 7.99027 | 18955 ft | 402 kts | 160° |
| 2026-04-29 00:27 | 47.35636 | 8.00158 | 18384 ft | 396 kts | 172° |
| 2026-04-29 00:28 | 47.32925 | 8.00872 | 17716 ft | 393 kts | 172° |
| 2026-04-29 00:28 | 47.30259 | 8.01562 | 17048 ft | 392 kts | 172° |
| 2026-04-29 00:28 | 47.27586 | 8.02293 | 16415 ft | 390 kts | 171° |
| 2026-04-29 00:28 | 47.24922 | 8.03034 | 15782 ft | 387 kts | 173° |
| 2026-04-29 00:29 | 47.22255 | 8.03038 | 15147 ft | 381 kts | 192° |
| 2026-04-29 00:29 | 47.19757 | 8.01837 | 14558 ft | 376 kts | 207° |
| 2026-04-29 00:29 | 47.17558 | 7.99781 | 13964 ft | 373 kts | 220° |
| 2026-04-29 00:29 | 47.15775 | 7.97035 | 13309 ft | 371 kts | 234° |
| 2026-04-29 00:30 | 47.14541 | 7.93774 | 12667 ft | 369 kts | 249° |
| 2026-04-29 00:30 | 47.13924 | 7.90118 | 12029 ft | 368 kts | 264° |
| 2026-04-29 00:30 | 47.13986 | 7.86369 | 11406 ft | 367 kts | 279° |
| 2026-04-29 00:30 | 47.14710 | 7.82790 | 10796 ft | 366 kts | 294° |
| 2026-04-29 00:31 | 47.16018 | 7.79645 | 10202 ft | 365 kts | 309° |
| 2026-04-29 00:31 | 47.17839 | 7.77058 | 9567 ft | 364 kts | 322° |
| 2026-04-29 00:31 | 47.19980 | 7.75084 | 8901 ft | 363 kts | 335° |
| 2026-04-29 00:31 | 47.22374 | 7.73950 | 8287 ft | 360 kts | 349° |
| 2026-04-29 00:32 | 47.24823 | 7.73263 | 7767 ft | 356 kts | 351° |
| 2026-04-29 00:32 | 47.27248 | 7.72612 | 7300 ft | 351 kts | 351° |
| 2026-04-29 00:32 | 47.29582 | 7.71959 | 7135 ft | 328 kts | 351° |
| 2026-04-29 00:32 | 47.31693 | 7.71348 | 7071 ft | 288 kts | 351° |
| 2026-04-29 00:33 | 47.33514 | 7.70693 | 7083 ft | 261 kts | 342° |
| 2026-04-29 00:33 | 47.35199 | 7.69630 | 6952 ft | 265 kts | 337° |
| 2026-04-29 00:33 | 47.36817 | 7.68459 | 6588 ft | 250 kts | 336° |
| 2026-04-29 00:33 | 47.38315 | 7.67380 | 6208 ft | 230 kts | 338° |
| 2026-04-29 00:34 | 47.39703 | 7.66401 | 5858 ft | 213 kts | 338° |
| 2026-04-29 00:34 | 47.40984 | 7.65503 | 5563 ft | 192 kts | 339° |
| 2026-04-29 00:34 | 47.42156 | 7.64684 | 5244 ft | 179 kts | 339° |
| 2026-04-29 00:34 | 47.43240 | 7.63928 | 4978 ft | 169 kts | 340° |
| 2026-04-29 00:35 | 47.44276 | 7.63206 | 4711 ft | 160 kts | 340° |
| 2026-04-29 00:35 | 47.45279 | 7.62507 | 4476 ft | 159 kts | 340° |
| 2026-04-29 00:35 | 47.46281 | 7.61807 | 4222 ft | 159 kts | 340° |
| 2026-04-29 00:35 | 47.47287 | 7.61104 | 3975 ft | 160 kts | 340° |
| 2026-04-29 00:36 | 47.48299 | 7.60391 | 3707 ft | 161 kts | 338° |
| 2026-04-29 00:36 | 47.49292 | 7.59668 | 3483 ft | 158 kts | 337° |
| 2026-04-29 00:36 | 47.50276 | 7.58932 | 3215 ft | 158 kts | 337° |
| 2026-04-29 00:36 | 47.51249 | 7.58238 | 2945 ft | 155 kts | 337° |
| 2026-04-29 00:37 | 47.52230 | 7.57598 | 2765 ft | 153 kts | 339° |
| 2026-04-29 00:37 | 47.53210 | 7.56941 | 2530 ft | 158 kts | 336° |
| 2026-04-29 00:37 | 47.54219 | 7.56231 | 2195 ft | 161 kts | 335° |
| 2026-04-29 00:37 | 47.55207 | 7.55525 | 1985 ft | 158 kts | 335° |
| 2026-04-29 00:38 | 47.56181 | 7.54850 | 1727 ft | 148 kts | 336° |
| 2026-04-29 00:38 | 47.57088 | 7.54209 | 1484 ft | 141 kts | 335° |
| 2026-04-29 00:38 | 47.57974 | 7.53590 | 1294 ft | 144 kts | 336° |
| 2026-04-29 00:38 | 47.58904 | 7.52962 | 1078 ft | 147 kts | 336° |
| 2026-04-29 00:39 | 47.59816 | 7.52339 | 899 ft | 138 kts | 336° |
| 2026-04-29 00:39 | 47.60589 | 7.51810 | 886 ft | 102 kts | 334° |
| 2026-04-29 00:39 | 47.61096 | 7.51456 | 884 ft | 59 kts | 334° |
| 2026-04-29 00:39 | 47.61371 | 7.51264 | 884 ft | 39 kts | 334° |
| 2026-04-29 00:40 | 47.61608 | 7.51101 | 886 ft | 34 kts | 335° |
| 2026-04-29 00:40 | 47.61756 | 7.51036 | 885 ft | 15 kts | 18° |
| 2026-04-29 00:40 | 47.61810 | 7.51162 | 886 ft | 15 kts | 84° |
| 2026-04-29 00:40 | 47.61758 | 7.51289 | 886 ft | 16 kts | 152° |
| 2026-04-29 00:41 | 47.61647 | 7.51370 | 885 ft | 19 kts | 154° |
| 2026-04-29 00:41 | 47.61568 | 7.51427 | 885 ft | 20 kts | 156° |
| 2026-04-29 00:41 | 47.61398 | 7.51541 | 885 ft | 21 kts | 155° |
| 2026-04-29 00:41 | 47.61266 | 7.51631 | 885 ft | 21 kts | 155° |
| 2026-04-29 00:42 | 47.61133 | 7.51722 | 886 ft | 21 kts | 155° |
| 2026-04-29 00:42 | 47.61006 | 7.51812 | 886 ft | 21 kts | 154° |
| 2026-04-29 00:42 | 47.60874 | 7.51905 | 885 ft | 21 kts | 155° |
| 2026-04-29 00:42 | 47.60739 | 7.51998 | 885 ft | 22 kts | 155° |
| 2026-04-29 00:43 | 47.60605 | 7.52091 | 885 ft | 21 kts | 155° |
| 2026-04-29 00:43 | 47.60470 | 7.52187 | 886 ft | 21 kts | 153° |
| 2026-04-29 00:43 | 47.60339 | 7.52277 | 886 ft | 20 kts | 155° |
| 2026-04-29 00:43 | 47.60214 | 7.52364 | 886 ft | 18 kts | 149° |
| 2026-04-29 00:44 | 47.60172 | 7.52493 | 886 ft | 13 kts | 150° |
| 2026-04-29 00:44 | 47.60091 | 7.52545 | 886 ft | 12 kts | 155° |
| 2026-04-29 00:44 | 47.60062 | 7.52642 | 885 ft | 12 kts | 64° |
| 2026-04-29 00:44 | 47.60111 | 7.52700 | 885 ft | 8 kts | 10° |
| 2026-04-29 00:45 | 47.60130 | 7.52701 | 885 ft | 0 kts | 0° |